sensor_id;sensor_type;location;lat;lon;timestamp;P1;durP1;ratioP1;P2;durP2;ratioP2
86114;SDS011;76768;49.464;10.882;2024-03-06T00:00:36;18.80;;;9.90;;
86114;SDS011;76768;49.464;10.882;2024-03-06T00:03:01;18.37;;;10.93;;
86114;SDS011;76768;49.464;10.882;2024-03-06T00:05:27;16.48;;;9.23;;
86114;SDS011;76768;49.464;10.882;2024-03-06T00:07:54;14.82;;;8.05;;
86114;SDS011;76768;49.464;10.882;2024-03-06T00:10:19;17.80;;;9.82;;
86114;SDS011;76768;49.464;10.882;2024-03-06T00:12:44;17.17;;;9.80;;
86114;SDS011;76768;49.464;10.882;2024-03-06T00:15:10;18.77;;;10.30;;
86114;SDS011;76768;49.464;10.882;2024-03-06T00:17:35;18.80;;;9.57;;
86114;SDS011;76768;49.464;10.882;2024-03-06T00:20:00;18.43;;;9.83;;
86114;SDS011;76768;49.464;10.882;2024-03-06T00:22:30;17.52;;;9.88;;
86114;SDS011;76768;49.464;10.882;2024-03-06T00:24:55;16.50;;;9.23;;
86114;SDS011;76768;49.464;10.882;2024-03-06T00:27:20;17.83;;;9.40;;
86114;SDS011;76768;49.464;10.882;2024-03-06T00:29:46;19.10;;;9.63;;
86114;SDS011;76768;49.464;10.882;2024-03-06T00:32:11;19.33;;;9.90;;
86114;SDS011;76768;49.464;10.882;2024-03-06T00:34:36;18.13;;;9.23;;
86114;SDS011;76768;49.464;10.882;2024-03-06T00:37:01;17.07;;;8.80;;
86114;SDS011;76768;49.464;10.882;2024-03-06T00:39:27;16.80;;;9.40;;
86114;SDS011;76768;49.464;10.882;2024-03-06T00:41:52;19.27;;;10.10;;
86114;SDS011;76768;49.464;10.882;2024-03-06T00:44:18;16.88;;;8.68;;
86114;SDS011;76768;49.464;10.882;2024-03-06T00:46:43;15.43;;;9.43;;
86114;SDS011;76768;49.464;10.882;2024-03-06T00:49:08;14.97;;;8.80;;
86114;SDS011;76768;49.464;10.882;2024-03-06T00:51:34;17.47;;;9.67;;
86114;SDS011;76768;49.464;10.882;2024-03-06T00:54:01;15.10;;;8.77;;
86114;SDS011;76768;49.464;10.882;2024-03-06T00:56:27;15.70;;;8.98;;
86114;SDS011;76768;49.464;10.882;2024-03-06T00:58:52;18.23;;;9.63;;
86114;SDS011;76768;49.464;10.882;2024-03-06T01:01:18;19.13;;;11.27;;
86114;SDS011;76768;49.464;10.882;2024-03-06T01:03:43;17.38;;;9.98;;
86114;SDS011;76768;49.464;10.882;2024-03-06T01:06:09;18.00;;;9.63;;
86114;SDS011;76768;49.464;10.882;2024-03-06T01:08:34;16.90;;;9.60;;
86114;SDS011;76768;49.464;10.882;2024-03-06T01:11:00;18.90;;;9.77;;
86114;SDS011;76768;49.464;10.882;2024-03-06T01:13:26;19.23;;;10.25;;
86114;SDS011;76768;49.464;10.882;2024-03-06T01:15:51;17.65;;;9.63;;
86114;SDS011;76768;49.464;10.882;2024-03-06T01:18:17;19.37;;;10.03;;
86114;SDS011;76768;49.464;10.882;2024-03-06T01:20:42;20.23;;;11.23;;
86114;SDS011;76768;49.464;10.882;2024-03-06T01:23:07;20.90;;;10.67;;
86114;SDS011;76768;49.464;10.882;2024-03-06T01:25:32;19.37;;;9.90;;
86114;SDS011;76768;49.464;10.882;2024-03-06T01:27:58;22.70;;;10.67;;
86114;SDS011;76768;49.464;10.882;2024-03-06T01:30:23;17.63;;;9.73;;
86114;SDS011;76768;49.464;10.882;2024-03-06T01:32:48;19.47;;;10.50;;
86114;SDS011;76768;49.464;10.882;2024-03-06T01:35:14;18.77;;;10.93;;
86114;SDS011;76768;49.464;10.882;2024-03-06T01:37:39;19.33;;;10.23;;
86114;SDS011;76768;49.464;10.882;2024-03-06T01:40:04;23.00;;;11.93;;
86114;SDS011;76768;49.464;10.882;2024-03-06T01:42:30;21.33;;;11.40;;
86114;SDS011;76768;49.464;10.882;2024-03-06T01:44:56;19.85;;;10.43;;
86114;SDS011;76768;49.464;10.882;2024-03-06T01:47:21;20.90;;;10.83;;
86114;SDS011;76768;49.464;10.882;2024-03-06T01:49:46;20.27;;;10.52;;
86114;SDS011;76768;49.464;10.882;2024-03-06T01:52:13;19.02;;;10.70;;
86114;SDS011;76768;49.464;10.882;2024-03-06T01:54:41;21.45;;;10.68;;
86114;SDS011;76768;49.464;10.882;2024-03-06T01:57:07;20.17;;;10.98;;
86114;SDS011;76768;49.464;10.882;2024-03-06T01:59:33;22.40;;;12.07;;
86114;SDS011;76768;49.464;10.882;2024-03-06T02:01:58;20.27;;;11.25;;
86114;SDS011;76768;49.464;10.882;2024-03-06T02:04:26;18.70;;;10.55;;
86114;SDS011;76768;49.464;10.882;2024-03-06T02:06:53;18.48;;;10.48;;
86114;SDS011;76768;49.464;10.882;2024-03-06T02:09:18;20.58;;;10.73;;
86114;SDS011;76768;49.464;10.882;2024-03-06T02:11:44;20.38;;;11.25;;
86114;SDS011;76768;49.464;10.882;2024-03-06T02:14:10;18.85;;;10.38;;
86114;SDS011;76768;49.464;10.882;2024-03-06T02:16:36;18.55;;;10.43;;
86114;SDS011;76768;49.464;10.882;2024-03-06T02:19:03;19.45;;;10.95;;
86114;SDS011;76768;49.464;10.882;2024-03-06T02:21:29;23.02;;;11.45;;
86114;SDS011;76768;49.464;10.882;2024-03-06T02:23:54;21.63;;;11.23;;
86114;SDS011;76768;49.464;10.882;2024-03-06T02:26:20;18.63;;;10.57;;
86114;SDS011;76768;49.464;10.882;2024-03-06T02:28:50;19.63;;;10.68;;
86114;SDS011;76768;49.464;10.882;2024-03-06T02:31:16;25.75;;;12.60;;
86114;SDS011;76768;49.464;10.882;2024-03-06T02:33:42;19.90;;;10.98;;
86114;SDS011;76768;49.464;10.882;2024-03-06T02:36:12;21.08;;;11.52;;
86114;SDS011;76768;49.464;10.882;2024-03-06T02:38:38;24.02;;;11.45;;
86114;SDS011;76768;49.464;10.882;2024-03-06T02:41:03;22.65;;;12.00;;
86114;SDS011;76768;49.464;10.882;2024-03-06T02:43:29;22.45;;;11.77;;
86114;SDS011;76768;49.464;10.882;2024-03-06T02:45:54;26.37;;;13.23;;
86114;SDS011;76768;49.464;10.882;2024-03-06T02:48:19;20.80;;;11.90;;
86114;SDS011;76768;49.464;10.882;2024-03-06T02:50:45;23.80;;;13.53;;
86114;SDS011;76768;49.464;10.882;2024-03-06T02:53:10;21.87;;;11.30;;
86114;SDS011;76768;49.464;10.882;2024-03-06T02:55:35;25.03;;;13.07;;
86114;SDS011;76768;49.464;10.882;2024-03-06T02:58:01;21.50;;;12.23;;
86114;SDS011;76768;49.464;10.882;2024-03-06T03:00:27;25.08;;;12.00;;
86114;SDS011;76768;49.464;10.882;2024-03-06T03:02:53;22.70;;;11.60;;
86114;SDS011;76768;49.464;10.882;2024-03-06T03:05:18;24.73;;;12.03;;
86114;SDS011;76768;49.464;10.882;2024-03-06T03:07:43;20.90;;;11.57;;
86114;SDS011;76768;49.464;10.882;2024-03-06T03:10:09;22.03;;;11.70;;
86114;SDS011;76768;49.464;10.882;2024-03-06T03:12:35;23.38;;;11.95;;
86114;SDS011;76768;49.464;10.882;2024-03-06T03:15:03;25.90;;;12.55;;
86114;SDS011;76768;49.464;10.882;2024-03-06T03:17:28;22.52;;;12.60;;
86114;SDS011;76768;49.464;10.882;2024-03-06T03:19:54;23.00;;;12.17;;
86114;SDS011;76768;49.464;10.882;2024-03-06T03:22:19;23.75;;;12.70;;
86114;SDS011;76768;49.464;10.882;2024-03-06T03:24:44;23.77;;;12.20;;
86114;SDS011;76768;49.464;10.882;2024-03-06T03:27:10;23.07;;;11.43;;
86114;SDS011;76768;49.464;10.882;2024-03-06T03:29:36;21.85;;;11.18;;
86114;SDS011;76768;49.464;10.882;2024-03-06T03:32:01;21.17;;;11.33;;
86114;SDS011;76768;49.464;10.882;2024-03-06T03:34:26;28.02;;;12.05;;
86114;SDS011;76768;49.464;10.882;2024-03-06T03:36:52;23.83;;;12.93;;
86114;SDS011;76768;49.464;10.882;2024-03-06T03:39:17;23.57;;;12.77;;
86114;SDS011;76768;49.464;10.882;2024-03-06T03:41:46;23.42;;;12.57;;
86114;SDS011;76768;49.464;10.882;2024-03-06T03:44:13;24.05;;;12.07;;
86114;SDS011;76768;49.464;10.882;2024-03-06T03:46:39;25.10;;;12.60;;
86114;SDS011;76768;49.464;10.882;2024-03-06T03:49:04;25.05;;;12.68;;
86114;SDS011;76768;49.464;10.882;2024-03-06T03:51:29;20.73;;;11.47;;
86114;SDS011;76768;49.464;10.882;2024-03-06T03:53:55;23.63;;;12.27;;
86114;SDS011;76768;49.464;10.882;2024-03-06T03:56:20;23.70;;;13.07;;
86114;SDS011;76768;49.464;10.882;2024-03-06T03:58:45;24.73;;;13.00;;
86114;SDS011;76768;49.464;10.882;2024-03-06T04:01:11;23.00;;;12.57;;
86114;SDS011;76768;49.464;10.882;2024-03-06T04:03:36;27.25;;;12.93;;
86114;SDS011;76768;49.464;10.882;2024-03-06T04:06:01;26.30;;;13.60;;
86114;SDS011;76768;49.464;10.882;2024-03-06T04:08:27;29.05;;;14.32;;
86114;SDS011;76768;49.464;10.882;2024-03-06T04:10:52;28.70;;;15.45;;
86114;SDS011;76768;49.464;10.882;2024-03-06T04:13:18;27.50;;;13.27;;
86114;SDS011;76768;49.464;10.882;2024-03-06T04:15:45;28.23;;;13.82;;
86114;SDS011;76768;49.464;10.882;2024-03-06T04:18:10;26.83;;;13.55;;
86114;SDS011;76768;49.464;10.882;2024-03-06T04:20:36;26.20;;;13.50;;
86114;SDS011;76768;49.464;10.882;2024-03-06T04:23:01;26.87;;;12.93;;
86114;SDS011;76768;49.464;10.882;2024-03-06T04:25:27;26.00;;;12.93;;
86114;SDS011;76768;49.464;10.882;2024-03-06T04:27:52;27.70;;;13.32;;
86114;SDS011;76768;49.464;10.882;2024-03-06T04:30:19;28.93;;;13.30;;
86114;SDS011;76768;49.464;10.882;2024-03-06T04:32:46;26.13;;;13.07;;
86114;SDS011;76768;49.464;10.882;2024-03-06T04:35:11;29.52;;;14.02;;
86114;SDS011;76768;49.464;10.882;2024-03-06T04:37:36;26.30;;;13.77;;
86114;SDS011;76768;49.464;10.882;2024-03-06T04:40:03;28.03;;;13.80;;
86114;SDS011;76768;49.464;10.882;2024-03-06T04:42:32;27.02;;;14.15;;
86114;SDS011;76768;49.464;10.882;2024-03-06T04:45:00;28.35;;;14.82;;
86114;SDS011;76768;49.464;10.882;2024-03-06T04:47:25;33.70;;;15.40;;
86114;SDS011;76768;49.464;10.882;2024-03-06T04:49:50;32.10;;;15.37;;
86114;SDS011;76768;49.464;10.882;2024-03-06T04:52:16;29.40;;;13.83;;
86114;SDS011;76768;49.464;10.882;2024-03-06T04:54:41;32.30;;;14.17;;
86114;SDS011;76768;49.464;10.882;2024-03-06T04:57:06;29.90;;;14.83;;
86114;SDS011;76768;49.464;10.882;2024-03-06T04:59:31;32.30;;;15.27;;
86114;SDS011;76768;49.464;10.882;2024-03-06T05:01:57;32.23;;;15.13;;
86114;SDS011;76768;49.464;10.882;2024-03-06T05:04:22;29.67;;;14.33;;
86114;SDS011;76768;49.464;10.882;2024-03-06T05:06:47;32.73;;;15.23;;
86114;SDS011;76768;49.464;10.882;2024-03-06T05:09:13;32.40;;;15.13;;
86114;SDS011;76768;49.464;10.882;2024-03-06T05:11:39;31.67;;;15.73;;
86114;SDS011;76768;49.464;10.882;2024-03-06T05:14:05;34.38;;;16.08;;
86114;SDS011;76768;49.464;10.882;2024-03-06T05:16:30;32.60;;;15.63;;
86114;SDS011;76768;49.464;10.882;2024-03-06T05:18:56;36.80;;;16.85;;
86114;SDS011;76768;49.464;10.882;2024-03-06T05:21:21;34.83;;;16.83;;
86114;SDS011;76768;49.464;10.882;2024-03-06T05:23:47;33.13;;;16.70;;
86114;SDS011;76768;49.464;10.882;2024-03-06T05:26:13;35.28;;;16.50;;
86114;SDS011;76768;49.464;10.882;2024-03-06T05:28:39;37.63;;;17.45;;
86114;SDS011;76768;49.464;10.882;2024-03-06T05:31:17;34.65;;;16.23;;
86114;SDS011;76768;49.464;10.882;2024-03-06T05:33:44;36.67;;;16.17;;
86114;SDS011;76768;49.464;10.882;2024-03-06T05:36:11;37.20;;;16.13;;
86114;SDS011;76768;49.464;10.882;2024-03-06T05:38:38;35.22;;;17.10;;
86114;SDS011;76768;49.464;10.882;2024-03-06T05:41:03;37.72;;;17.40;;
86114;SDS011;76768;49.464;10.882;2024-03-06T05:43:29;38.13;;;16.27;;
86114;SDS011;76768;49.464;10.882;2024-03-06T05:45:54;36.47;;;17.90;;
86114;SDS011;76768;49.464;10.882;2024-03-06T05:48:19;37.80;;;17.17;;
86114;SDS011;76768;49.464;10.882;2024-03-06T05:50:44;36.50;;;17.20;;
86114;SDS011;76768;49.464;10.882;2024-03-06T05:53:10;37.90;;;16.50;;
86114;SDS011;76768;49.464;10.882;2024-03-06T05:55:36;33.83;;;16.15;;
86114;SDS011;76768;49.464;10.882;2024-03-06T05:58:02;38.45;;;18.38;;
86114;SDS011;76768;49.464;10.882;2024-03-06T06:00:27;39.40;;;17.92;;
86114;SDS011;76768;49.464;10.882;2024-03-06T06:02:52;37.33;;;16.57;;
86114;SDS011;76768;49.464;10.882;2024-03-06T06:05:17;32.60;;;16.03;;
86114;SDS011;76768;49.464;10.882;2024-03-06T06:07:44;39.10;;;16.17;;
86114;SDS011;76768;49.464;10.882;2024-03-06T06:10:10;39.40;;;17.15;;
86114;SDS011;76768;49.464;10.882;2024-03-06T06:12:36;30.05;;;14.73;;
86114;SDS011;76768;49.464;10.882;2024-03-06T06:15:01;33.72;;;14.98;;
86114;SDS011;76768;49.464;10.882;2024-03-06T06:17:26;34.50;;;16.55;;
86114;SDS011;76768;49.464;10.882;2024-03-06T06:19:52;38.10;;;15.60;;
86114;SDS011;76768;49.464;10.882;2024-03-06T06:22:17;39.57;;;15.90;;
86114;SDS011;76768;49.464;10.882;2024-03-06T06:24:42;37.40;;;17.10;;
86114;SDS011;76768;49.464;10.882;2024-03-06T06:27:07;38.10;;;16.30;;
86114;SDS011;76768;49.464;10.882;2024-03-06T06:29:33;33.75;;;16.27;;
86114;SDS011;76768;49.464;10.882;2024-03-06T06:31:58;38.88;;;15.45;;
86114;SDS011;76768;49.464;10.882;2024-03-06T06:34:24;37.37;;;17.20;;
86114;SDS011;76768;49.464;10.882;2024-03-06T06:36:52;34.65;;;16.45;;
86114;SDS011;76768;49.464;10.882;2024-03-06T06:39:18;38.20;;;17.13;;
86114;SDS011;76768;49.464;10.882;2024-03-06T06:41:43;37.63;;;17.07;;
86114;SDS011;76768;49.464;10.882;2024-03-06T06:44:09;36.63;;;16.88;;
86114;SDS011;76768;49.464;10.882;2024-03-06T06:46:34;38.47;;;17.03;;
86114;SDS011;76768;49.464;10.882;2024-03-06T06:48:59;33.20;;;15.60;;
86114;SDS011;76768;49.464;10.882;2024-03-06T06:51:25;34.27;;;15.97;;
86114;SDS011;76768;49.464;10.882;2024-03-06T06:53:50;39.17;;;17.17;;
86114;SDS011;76768;49.464;10.882;2024-03-06T06:56:15;37.55;;;16.65;;
86114;SDS011;76768;49.464;10.882;2024-03-06T06:58:41;41.07;;;17.13;;
86114;SDS011;76768;49.464;10.882;2024-03-06T07:01:08;40.55;;;17.58;;
86114;SDS011;76768;49.464;10.882;2024-03-06T07:03:33;38.65;;;18.05;;
86114;SDS011;76768;49.464;10.882;2024-03-06T07:05:59;38.73;;;17.20;;
86114;SDS011;76768;49.464;10.882;2024-03-06T07:08:24;39.22;;;16.90;;
86114;SDS011;76768;49.464;10.882;2024-03-06T07:10:50;40.83;;;16.95;;
86114;SDS011;76768;49.464;10.882;2024-03-06T07:13:18;38.35;;;16.50;;
86114;SDS011;76768;49.464;10.882;2024-03-06T07:15:43;36.40;;;16.83;;
86114;SDS011;76768;49.464;10.882;2024-03-06T07:18:08;36.37;;;16.73;;
86114;SDS011;76768;49.464;10.882;2024-03-06T07:20:34;37.33;;;17.20;;
86114;SDS011;76768;49.464;10.882;2024-03-06T07:22:59;39.40;;;16.00;;
86114;SDS011;76768;49.464;10.882;2024-03-06T07:25:24;34.23;;;16.73;;
86114;SDS011;76768;49.464;10.882;2024-03-06T07:27:50;39.20;;;16.80;;
86114;SDS011;76768;49.464;10.882;2024-03-06T07:30:15;33.50;;;15.00;;
86114;SDS011;76768;49.464;10.882;2024-03-06T07:32:41;35.75;;;16.73;;
86114;SDS011;76768;49.464;10.882;2024-03-06T07:35:06;36.40;;;16.58;;
86114;SDS011;76768;49.464;10.882;2024-03-06T07:37:32;37.08;;;16.48;;
86114;SDS011;76768;49.464;10.882;2024-03-06T07:39:58;35.13;;;17.02;;
86114;SDS011;76768;49.464;10.882;2024-03-06T07:42:24;40.13;;;16.70;;
86114;SDS011;76768;49.464;10.882;2024-03-06T07:44:50;37.78;;;17.13;;
86114;SDS011;76768;49.464;10.882;2024-03-06T07:47:15;38.43;;;16.47;;
86114;SDS011;76768;49.464;10.882;2024-03-06T07:49:41;36.57;;;15.57;;
86114;SDS011;76768;49.464;10.882;2024-03-06T07:52:06;38.67;;;16.73;;
86114;SDS011;76768;49.464;10.882;2024-03-06T07:54:31;40.97;;;16.73;;
86114;SDS011;76768;49.464;10.882;2024-03-06T07:56:58;38.83;;;16.48;;
86114;SDS011;76768;49.464;10.882;2024-03-06T07:59:23;33.67;;;15.80;;
86114;SDS011;76768;49.464;10.882;2024-03-06T08:01:48;37.17;;;16.13;;
86114;SDS011;76768;49.464;10.882;2024-03-06T08:04:14;40.65;;;17.08;;
86114;SDS011;76768;49.464;10.882;2024-03-06T08:06:39;35.20;;;15.73;;
86114;SDS011;76768;49.464;10.882;2024-03-06T08:09:05;34.53;;;16.23;;
86114;SDS011;76768;49.464;10.882;2024-03-06T08:11:31;35.92;;;16.30;;
86114;SDS011;76768;49.464;10.882;2024-03-06T08:13:58;34.17;;;16.42;;
86114;SDS011;76768;49.464;10.882;2024-03-06T08:16:24;35.40;;;15.73;;
86114;SDS011;76768;49.464;10.882;2024-03-06T08:18:49;36.58;;;16.83;;
86114;SDS011;76768;49.464;10.882;2024-03-06T08:21:15;35.20;;;15.88;;
86114;SDS011;76768;49.464;10.882;2024-03-06T08:23:40;31.53;;;15.13;;
86114;SDS011;76768;49.464;10.882;2024-03-06T08:26:05;31.20;;;14.10;;
86114;SDS011;76768;49.464;10.882;2024-03-06T08:28:31;31.77;;;14.32;;
86114;SDS011;76768;49.464;10.882;2024-03-06T08:30:56;35.80;;;16.07;;
86114;SDS011;76768;49.464;10.882;2024-03-06T08:33:21;31.77;;;13.98;;
86114;SDS011;76768;49.464;10.882;2024-03-06T08:35:47;33.45;;;14.63;;
86114;SDS011;76768;49.464;10.882;2024-03-06T08:38:13;29.50;;;14.32;;
86114;SDS011;76768;49.464;10.882;2024-03-06T08:40:38;32.28;;;15.75;;
86114;SDS011;76768;49.464;10.882;2024-03-06T08:43:04;31.45;;;14.35;;
86114;SDS011;76768;49.464;10.882;2024-03-06T08:45:29;39.75;;;15.35;;
86114;SDS011;76768;49.464;10.882;2024-03-06T08:47:54;34.70;;;13.97;;
86114;SDS011;76768;49.464;10.882;2024-03-06T08:50:20;34.78;;;15.10;;
86114;SDS011;76768;49.464;10.882;2024-03-06T08:52:46;29.70;;;13.73;;
86114;SDS011;76768;49.464;10.882;2024-03-06T08:55:11;31.35;;;14.50;;
86114;SDS011;76768;49.464;10.882;2024-03-06T08:57:37;38.67;;;16.33;;
86114;SDS011;76768;49.464;10.882;2024-03-06T09:00:03;31.20;;;13.13;;
86114;SDS011;76768;49.464;10.882;2024-03-06T09:02:29;26.05;;;12.30;;
86114;SDS011;76768;49.464;10.882;2024-03-06T09:04:55;29.02;;;12.77;;
86114;SDS011;76768;49.464;10.882;2024-03-06T09:07:20;30.38;;;14.38;;
86114;SDS011;76768;49.464;10.882;2024-03-06T09:09:48;29.55;;;13.45;;
86114;SDS011;76768;49.464;10.882;2024-03-06T09:12:14;32.22;;;14.73;;
86114;SDS011;76768;49.464;10.882;2024-03-06T09:14:39;30.33;;;14.60;;
86114;SDS011;76768;49.464;10.882;2024-03-06T09:17:07;32.33;;;14.02;;
86114;SDS011;76768;49.464;10.882;2024-03-06T09:19:38;48.35;;;15.18;;
86114;SDS011;76768;49.464;10.882;2024-03-06T09:22:03;30.90;;;13.45;;
86114;SDS011;76768;49.464;10.882;2024-03-06T09:24:28;24.92;;;12.50;;
86114;SDS011;76768;49.464;10.882;2024-03-06T09:26:54;29.10;;;12.10;;
86114;SDS011;76768;49.464;10.882;2024-03-06T09:29:20;25.45;;;12.07;;
86114;SDS011;76768;49.464;10.882;2024-03-06T09:31:46;30.50;;;13.52;;
86114;SDS011;76768;49.464;10.882;2024-03-06T09:34:12;27.98;;;12.18;;
86114;SDS011;76768;49.464;10.882;2024-03-06T09:36:39;25.40;;;12.23;;
86114;SDS011;76768;49.464;10.882;2024-03-06T09:39:08;29.90;;;12.38;;
86114;SDS011;76768;49.464;10.882;2024-03-06T09:41:34;27.77;;;14.68;;
86114;SDS011;76768;49.464;10.882;2024-03-06T09:43:59;24.90;;;12.30;;
86114;SDS011;76768;49.464;10.882;2024-03-06T09:46:25;28.67;;;13.93;;
86114;SDS011;76768;49.464;10.882;2024-03-06T09:48:51;24.65;;;11.27;;
86114;SDS011;76768;49.464;10.882;2024-03-06T09:51:18;24.65;;;10.60;;
86114;SDS011;76768;49.464;10.882;2024-03-06T09:53:45;25.33;;;11.57;;
86114;SDS011;76768;49.464;10.882;2024-03-06T09:56:14;21.90;;;11.00;;
86114;SDS011;76768;49.464;10.882;2024-03-06T09:58:40;24.45;;;11.73;;
86114;SDS011;76768;49.464;10.882;2024-03-06T10:01:05;26.05;;;12.05;;
86114;SDS011;76768;49.464;10.882;2024-03-06T10:03:32;26.08;;;11.70;;
86114;SDS011;76768;49.464;10.882;2024-03-06T10:05:58;25.10;;;11.60;;
86114;SDS011;76768;49.464;10.882;2024-03-06T10:08:24;22.23;;;10.82;;
86114;SDS011;76768;49.464;10.882;2024-03-06T10:10:52;22.45;;;11.35;;
86114;SDS011;76768;49.464;10.882;2024-03-06T10:13:22;21.05;;;10.10;;
86114;SDS011;76768;49.464;10.882;2024-03-06T10:16:02;19.90;;;8.63;;
86114;SDS011;76768;49.464;10.882;2024-03-06T10:18:29;19.25;;;9.32;;
86114;SDS011;76768;49.464;10.882;2024-03-06T10:20:56;22.65;;;11.10;;
86114;SDS011;76768;49.464;10.882;2024-03-06T10:23:21;24.05;;;11.38;;
86114;SDS011;76768;49.464;10.882;2024-03-06T10:25:47;22.60;;;10.88;;
86114;SDS011;76768;49.464;10.882;2024-03-06T10:28:20;21.98;;;10.98;;
86114;SDS011;76768;49.464;10.882;2024-03-06T10:30:47;23.75;;;11.50;;
86114;SDS011;76768;49.464;10.882;2024-03-06T10:33:13;21.95;;;10.52;;
86114;SDS011;76768;49.464;10.882;2024-03-06T10:35:40;20.95;;;10.93;;
86114;SDS011;76768;49.464;10.882;2024-03-06T10:38:07;22.23;;;10.50;;
86114;SDS011;76768;49.464;10.882;2024-03-06T10:40:37;22.83;;;10.93;;
86114;SDS011;76768;49.464;10.882;2024-03-06T10:43:04;20.45;;;10.60;;
86114;SDS011;76768;49.464;10.882;2024-03-06T10:48:16;21.48;;;10.15;;
86114;SDS011;76768;49.464;10.882;2024-03-06T10:50:44;21.95;;;10.75;;
86114;SDS011;76768;49.464;10.882;2024-03-06T10:53:11;21.30;;;11.07;;
86114;SDS011;76768;49.464;10.882;2024-03-06T10:55:42;20.15;;;9.90;;
86114;SDS011;76768;49.464;10.882;2024-03-06T10:58:11;19.48;;;9.70;;
86114;SDS011;76768;49.464;10.882;2024-03-06T11:00:37;20.20;;;10.70;;
86114;SDS011;76768;49.464;10.882;2024-03-06T11:03:08;20.98;;;9.43;;
86114;SDS011;76768;49.464;10.882;2024-03-06T11:05:37;22.88;;;10.57;;
86114;SDS011;76768;49.464;10.882;2024-03-06T11:08:07;19.90;;;10.43;;
86114;SDS011;76768;49.464;10.882;2024-03-06T11:10:34;19.60;;;9.93;;
86114;SDS011;76768;49.464;10.882;2024-03-06T11:13:00;19.05;;;8.77;;
86114;SDS011;76768;49.464;10.882;2024-03-06T11:15:27;21.50;;;9.68;;
86114;SDS011;76768;49.464;10.882;2024-03-06T11:17:53;22.93;;;11.53;;
86114;SDS011;76768;49.464;10.882;2024-03-06T11:20:19;21.00;;;10.32;;
86114;SDS011;76768;49.464;10.882;2024-03-06T11:28:22;23.00;;;11.00;;
86114;SDS011;76768;49.464;10.882;2024-03-06T11:30:54;22.65;;;10.10;;
86114;SDS011;76768;49.464;10.882;2024-03-06T11:33:19;22.73;;;11.40;;
86114;SDS011;76768;49.464;10.882;2024-03-06T11:41:49;22.40;;;10.60;;
86114;SDS011;76768;49.464;10.882;2024-03-06T11:44:16;24.33;;;12.05;;
86114;SDS011;76768;49.464;10.882;2024-03-06T11:46:46;23.73;;;11.18;;
86114;SDS011;76768;49.464;10.882;2024-03-06T11:49:22;21.13;;;10.73;;
86114;SDS011;76768;49.464;10.882;2024-03-06T11:51:55;22.15;;;11.38;;
86114;SDS011;76768;49.464;10.882;2024-03-06T11:54:25;20.02;;;10.05;;
86114;SDS011;76768;49.464;10.882;2024-03-06T11:56:52;21.92;;;10.05;;
86114;SDS011;76768;49.464;10.882;2024-03-06T11:59:25;19.98;;;10.35;;
86114;SDS011;76768;49.464;10.882;2024-03-06T12:01:52;20.35;;;10.18;;
86114;SDS011;76768;49.464;10.882;2024-03-06T12:04:19;21.25;;;9.77;;
86114;SDS011;76768;49.464;10.882;2024-03-06T12:06:45;18.55;;;9.48;;
86114;SDS011;76768;49.464;10.882;2024-03-06T12:09:11;20.38;;;10.25;;
86114;SDS011;76768;49.464;10.882;2024-03-06T12:11:36;19.38;;;10.50;;
86114;SDS011;76768;49.464;10.882;2024-03-06T12:14:02;19.88;;;10.15;;
86114;SDS011;76768;49.464;10.882;2024-03-06T12:16:28;20.50;;;9.93;;
86114;SDS011;76768;49.464;10.882;2024-03-06T12:18:56;21.43;;;9.93;;
86114;SDS011;76768;49.464;10.882;2024-03-06T12:21:27;21.55;;;10.95;;
86114;SDS011;76768;49.464;10.882;2024-03-06T12:24:03;19.92;;;10.15;;
86114;SDS011;76768;49.464;10.882;2024-03-06T12:26:34;19.02;;;9.75;;
86114;SDS011;76768;49.464;10.882;2024-03-06T12:29:04;18.42;;;9.45;;
86114;SDS011;76768;49.464;10.882;2024-03-06T12:31:31;20.30;;;8.77;;
86114;SDS011;76768;49.464;10.882;2024-03-06T12:33:57;20.92;;;9.80;;
86114;SDS011;76768;49.464;10.882;2024-03-06T12:36:24;20.92;;;9.75;;
86114;SDS011;76768;49.464;10.882;2024-03-06T12:39:00;22.35;;;10.40;;
86114;SDS011;76768;49.464;10.882;2024-03-06T12:41:27;19.77;;;10.68;;
86114;SDS011;76768;49.464;10.882;2024-03-06T12:43:53;21.15;;;9.88;;
86114;SDS011;76768;49.464;10.882;2024-03-06T12:46:20;18.50;;;8.85;;
86114;SDS011;76768;49.464;10.882;2024-03-06T12:48:46;21.08;;;10.63;;
86114;SDS011;76768;49.464;10.882;2024-03-06T12:51:11;23.67;;;9.83;;
86114;SDS011;76768;49.464;10.882;2024-03-06T12:53:37;24.90;;;11.63;;
86114;SDS011;76768;49.464;10.882;2024-03-06T12:56:02;21.25;;;10.70;;
86114;SDS011;76768;49.464;10.882;2024-03-06T12:58:28;18.58;;;9.30;;
86114;SDS011;76768;49.464;10.882;2024-03-06T13:00:56;20.63;;;10.20;;
86114;SDS011;76768;49.464;10.882;2024-03-06T13:03:22;19.30;;;10.18;;
86114;SDS011;76768;49.464;10.882;2024-03-06T13:05:48;17.17;;;8.73;;
86114;SDS011;76768;49.464;10.882;2024-03-06T13:08:13;17.85;;;10.27;;
86114;SDS011;76768;49.464;10.882;2024-03-06T13:10:39;22.33;;;10.88;;
86114;SDS011;76768;49.464;10.882;2024-03-06T13:13:05;19.27;;;9.95;;
86114;SDS011;76768;49.464;10.882;2024-03-06T13:15:31;18.25;;;10.32;;
86114;SDS011;76768;49.464;10.882;2024-03-06T13:17:58;19.45;;;9.57;;
86114;SDS011;76768;49.464;10.882;2024-03-06T13:20:24;20.80;;;9.85;;
86114;SDS011;76768;49.464;10.882;2024-03-06T13:22:49;20.67;;;10.27;;
86114;SDS011;76768;49.464;10.882;2024-03-06T13:25:15;23.10;;;9.83;;
86114;SDS011;76768;49.464;10.882;2024-03-06T13:27:40;23.10;;;10.07;;
86114;SDS011;76768;49.464;10.882;2024-03-06T13:30:06;22.20;;;10.95;;
86114;SDS011;76768;49.464;10.882;2024-03-06T13:32:33;20.58;;;10.23;;
86114;SDS011;76768;49.464;10.882;2024-03-06T13:34:58;19.75;;;9.85;;
86114;SDS011;76768;49.464;10.882;2024-03-06T13:37:23;22.13;;;10.25;;
86114;SDS011;76768;49.464;10.882;2024-03-06T13:39:49;23.85;;;11.23;;
86114;SDS011;76768;49.464;10.882;2024-03-06T13:42:15;23.13;;;10.38;;
86114;SDS011;76768;49.464;10.882;2024-03-06T13:44:40;19.10;;;8.63;;
86114;SDS011;76768;49.464;10.882;2024-03-06T13:47:05;19.97;;;9.43;;
86114;SDS011;76768;49.464;10.882;2024-03-06T13:49:39;18.48;;;9.55;;
86114;SDS011;76768;49.464;10.882;2024-03-06T13:52:06;23.05;;;10.07;;
86114;SDS011;76768;49.464;10.882;2024-03-06T13:54:35;24.45;;;11.40;;
86114;SDS011;76768;49.464;10.882;2024-03-06T13:57:04;21.20;;;10.07;;
86114;SDS011;76768;49.464;10.882;2024-03-06T13:59:33;19.63;;;10.23;;
86114;SDS011;76768;49.464;10.882;2024-03-06T14:01:58;20.83;;;9.98;;
86114;SDS011;76768;49.464;10.882;2024-03-06T14:04:24;22.05;;;11.43;;
86114;SDS011;76768;49.464;10.882;2024-03-06T14:06:50;18.58;;;9.50;;
86114;SDS011;76768;49.464;10.882;2024-03-06T14:09:15;18.45;;;9.35;;
86114;SDS011;76768;49.464;10.882;2024-03-06T14:11:41;19.95;;;10.52;;
86114;SDS011;76768;49.464;10.882;2024-03-06T14:14:06;22.87;;;10.33;;
86114;SDS011;76768;49.464;10.882;2024-03-06T14:16:32;18.98;;;9.45;;
86114;SDS011;76768;49.464;10.882;2024-03-06T14:18:57;17.50;;;9.32;;